ESIB

Såtenäs Air Base Airport

Såtenäs, Sweden
METAR ESIB 131020Z 07007KT 9999 FEW020 BKN037 00/M01 Q1032
Observed Flight Rules
Dec-13 @ 10:20 UTC (31 minutes ago) Visual Flight Rules
Wind Visibility Clouds
70° at 7 knots 10,000+ meters
  • Few at 2,000' AGL
  • Broken at 3,700' AGL
Temperatures Readings
Current 0°C / 32°F
Dewpoint -1°C / 30°F
Humidity 93%
Altimeter 30.47" Hg
Pressure 1032 hPa
Elevation 74
METAR ESIB 131020Z 07007KT 9999 FEW020 BKN037 00/M01 Q1032
Observed Flight Rules
Dec-13 @ 10:20 UTC
(31 minutes ago)
VFR
Wind Visibility
70° at 7 knots 10,000+ meters
Clouds
  • Few at 2,000' AGL
  • Broken at 3,700' AGL
Temperature Dewpoint
0°C / 32°F -1°C / 30°F
Humidity Altimeter Pressure
93% 30.47" Hg 1032 hPa